createdAt,value
2022-11-01T00:01:12.933Z,99300.78
2022-11-01T00:04:00.036Z,99294.81
2022-11-01T00:06:47.765Z,99292.38
2022-11-01T00:09:36.443Z,99285.59
2022-11-01T00:12:23.764Z,99281.28
2022-11-01T00:15:10.856Z,99271.94
2022-11-01T00:17:58.289Z,99272.06
2022-11-01T00:20:46.943Z,99278.00
2022-11-01T00:23:34.173Z,99290.88
2022-11-01T00:26:25.644Z,99284.78
2022-11-01T00:29:13.974Z,99282.34
2022-11-01T00:32:01.549Z,99290.06
2022-11-01T00:34:48.582Z,99294.28
2022-11-01T00:37:35.769Z,99291.69
2022-11-01T00:40:22.873Z,99303.72
2022-11-01T00:43:11.747Z,99303.84
2022-11-01T00:45:59.106Z,99299.41
2022-11-01T00:48:46.238Z,99300.34
2022-11-01T00:51:33.663Z,99297.78
2022-11-01T00:54:20.936Z,99301.16
2022-11-01T00:57:07.970Z,99294.28
2022-11-01T00:59:56.392Z,99298.59
2022-11-01T01:02:43.997Z,99274.63
2022-11-01T01:05:31.634Z,99277.19
2022-11-01T01:08:19.198Z,99287.63
2022-11-01T01:11:06.827Z,99273.94
2022-11-01T01:13:54.418Z,99268.78
2022-11-01T01:16:43.111Z,99259.34
2022-11-01T01:19:31.231Z,99263.66
2022-11-01T01:22:18.614Z,99255.94
2022-11-01T01:25:06.983Z,99250.78
2022-11-01T01:27:54.084Z,99250.78
2022-11-01T01:30:42.335Z,99248.22
2022-11-01T01:33:30.867Z,99253.25
2022-11-01T01:36:18.353Z,99243.91
2022-11-01T01:39:05.673Z,99250.69
2022-11-01T01:42:01.774Z,99253.34
2022-11-01T01:45:25.063Z,99260.41
2022-11-01T01:48:18.560Z,99256.06
2022-11-01T01:51:11.454Z,99262.97
2022-11-01T01:53:59.980Z,99257.81
2022-11-01T01:56:47.096Z,99256.91
2022-11-01T01:59:36.227Z,99249.19
2022-11-01T02:02:23.987Z,99245.78
2022-11-01T02:05:18.617Z,99249.97
2022-11-01T02:08:09.127Z,99256.75
2022-11-01T02:11:00.978Z,99248.22
2022-11-01T02:13:49.026Z,99245.53
2022-11-01T02:16:53.059Z,99245.53
2022-11-01T02:20:17.725Z,99239.56
2022-11-01T02:23:57.421Z,99247.41
2022-11-01T02:27:13.906Z,99237.94
2022-11-01T02:30:18.427Z,99238.75
2022-11-01T02:33:21.051Z,99246.34
2022-11-01T02:36:15.411Z,99241.19
2022-11-01T02:39:09.643Z,99246.34
2022-11-01T02:42:04.633Z,99254.72
2022-11-01T02:44:57.959Z,99247.00
2022-11-01T02:47:45.158Z,99253.91
2022-11-01T02:50:38.531Z,99246.06
2022-11-01T02:53:25.536Z,99260.69
2022-11-01T02:56:13.196Z,99256.38
2022-11-01T02:59:02.022Z,99260.69
2022-11-01T03:01:55.139Z,99271.00
2022-11-01T03:04:42.475Z,99279.50
2022-11-01T03:07:31.313Z,99290.63
2022-11-01T03:10:22.632Z,99308.63
2022-11-01T03:13:29.177Z,99320.41
2022-11-01T03:16:24.508Z,99323.81
2022-11-01T03:19:29.691Z,99322.75
2022-11-01T03:22:21.895Z,99333.56
2022-11-01T03:25:29.677Z,99360.00
2022-11-01T03:28:22.952Z,99358.94
2022-11-01T03:31:15.086Z,99346.75
2022-11-01T03:34:05.981Z,99336.22
2022-11-01T03:36:57.846Z,99326.59
2022-11-01T03:39:49.763Z,99325.53
2022-11-01T03:42:40.266Z,99334.06
2022-11-01T03:45:29.537Z,99325.25
2022-11-01T03:48:16.766Z,99322.69
2022-11-01T03:51:04.069Z,99322.47
2022-11-01T03:53:50.943Z,99326.63
2022-11-01T03:56:40.531Z,99324.75
2022-11-01T03:59:29.140Z,99325.56
2022-11-01T04:02:15.986Z,99317.72
2022-11-01T04:05:03.468Z,99314.19
2022-11-01T04:07:51.553Z,99320.84
2022-11-01T04:10:38.571Z,99322.50
2022-11-01T04:13:25.991Z,99316.41
2022-11-01T04:16:32.256Z,99324.94
2022-11-01T04:19:36.873Z,99321.56
2022-11-01T04:22:24.722Z,99332.66
2022-11-01T04:25:11.822Z,99342.00
2022-11-01T04:27:59.604Z,99342.81
2022-11-01T04:30:46.985Z,99347.97
2022-11-01T04:33:35.313Z,99347.03
2022-11-01T04:36:22.328Z,99342.69
2022-11-01T04:39:10.575Z,99350.28
2022-11-01T04:41:57.686Z,99344.31
2022-11-01T04:44:46.830Z,99360.56
2022-11-01T04:47:34.002Z,99354.47
2022-11-01T04:50:23.165Z,99357.06
2022-11-01T04:53:11.128Z,99362.06
2022-11-01T04:55:58.089Z,99364.63
2022-11-01T04:58:46.689Z,99364.63
2022-11-01T05:01:35.348Z,99365.47
2022-11-01T05:04:22.869Z,99349.06
2022-11-01T05:07:11.140Z,99335.25
2022-11-01T05:09:58.481Z,99331.03
2022-11-01T05:12:45.647Z,99345.56
2022-11-01T05:15:32.803Z,99354.06
2022-11-01T05:18:20.063Z,99360.06
2022-11-01T05:21:07.412Z,99375.50
2022-11-01T05:23:56.248Z,99381.47
2022-11-01T05:26:44.032Z,99386.59
2022-11-01T05:29:33.188Z,99392.59
2022-11-01T05:32:20.890Z,99392.59
2022-11-01T05:35:08.501Z,99389.88
2022-11-01T05:37:56.594Z,99404.50
2022-11-01T05:40:45.237Z,99407.06
2022-11-01T05:43:32.448Z,99425.09
2022-11-01T05:46:19.694Z,99425.09
2022-11-01T05:49:07.012Z,99426.06
2022-11-01T05:51:54.150Z,99429.44
2022-11-01T05:54:41.270Z,99419.13
2022-11-01T05:57:33.447Z,99429.44
2022-11-01T06:00:21.250Z,99435.38
2022-11-01T06:03:08.726Z,99431.06
2022-11-01T06:05:55.893Z,99429.31
2022-11-01T06:08:43.344Z,99448.97
2022-11-01T06:11:30.914Z,99447.31
2022-11-01T06:14:19.293Z,99448.25
2022-11-01T06:17:06.722Z,99449.88
2022-11-01T06:19:54.048Z,99455.88
2022-11-01T06:22:41.347Z,99463.59
2022-11-01T06:25:29.607Z,99463.59
2022-11-01T06:28:16.658Z,99468.75
2022-11-01T06:33:58.234Z,99477.28
2022-11-01T06:36:45.449Z,99482.44
2022-11-01T06:39:32.496Z,99492.72
2022-11-01T06:42:19.867Z,99475.63
2022-11-01T06:45:07.876Z,99485.13
2022-11-01T06:47:56.169Z,99492.84
2022-11-01T06:50:43.608Z,99502.31
2022-11-01T06:53:31.732Z,99497.16
2022-11-01T06:56:18.893Z,99503.97
2022-11-01T06:59:06.316Z,99510.03
2022-11-01T07:01:53.531Z,99512.63
2022-11-01T07:04:23.898Z,99517.75
2022-11-01T07:06:52.545Z,99523.75
2022-11-01T07:09:21.241Z,99517.66
2022-11-01T07:11:49.851Z,99513.31
2022-11-01T07:14:18.383Z,99521.03
2022-11-01T07:16:46.964Z,99527.84
2022-11-01T07:19:15.560Z,99535.56
2022-11-01T07:21:45.683Z,99538.13
2022-11-01T07:24:14.274Z,99550.03
2022-11-01T07:26:42.888Z,99555.19
2022-11-01T07:29:11.470Z,99556.81
2022-11-01T07:31:41.019Z,99559.41
2022-11-01T07:34:09.812Z,99556.81
2022-11-01T07:36:38.388Z,99557.53
2022-11-01T07:39:08.376Z,99561.03
2022-11-01T07:41:37.018Z,99563.63
2022-11-01T07:44:06.251Z,99551.41
2022-11-01T07:46:34.803Z,99564.28
2022-11-01T07:49:03.488Z,99558.22
2022-11-01T07:51:32.038Z,99559.97
2022-11-01T07:56:36.065Z,99569.22
2022-11-01T07:59:04.811Z,99565.81
2022-11-01T08:01:33.587Z,99570.03
2022-11-01T08:04:03.063Z,99561.50
2022-11-01T08:06:31.740Z,99568.94
2022-11-01T08:09:00.299Z,99567.19
2022-11-01T08:11:29.968Z,99566.38
2022-11-01T08:14:02.928Z,99564.50
2022-11-01T08:16:34.862Z,99568.69
2022-11-01T08:19:03.471Z,99569.44
2022-11-01T08:21:32.086Z,99576.22
2022-11-01T08:24:00.711Z,99576.09
2022-11-01T08:26:29.307Z,99572.44
2022-11-01T08:28:59.326Z,99581.78
2022-11-01T08:31:27.977Z,99574.91
2022-11-01T08:33:56.619Z,99580.84
2022-11-01T08:36:25.213Z,99588.44
2022-11-01T08:38:53.809Z,99586.72
2022-11-01T08:41:23.669Z,99593.47
2022-11-01T08:43:52.324Z,99594.19
2022-11-01T08:46:22.413Z,99582.94
2022-11-01T08:48:52.360Z,99592.28
2022-11-01T08:51:25.758Z,99602.59
2022-11-01T08:53:57.251Z,99591.34
2022-11-01T08:56:27.520Z,99608.44
2022-11-01T08:58:57.786Z,99600.72
2022-11-01T09:01:28.057Z,99603.16
2022-11-01T09:03:58.387Z,99600.59
2022-11-01T09:06:29.027Z,99598.81
2022-11-01T09:09:00.374Z,99609.94
2022-11-01T09:11:30.529Z,99604.78
2022-11-01T09:13:59.166Z,99609.94
2022-11-01T09:16:29.302Z,99610.75
2022-11-01T09:19:01.735Z,99615.09
2022-11-01T09:21:31.737Z,99604.78
2022-11-01T09:24:00.945Z,99613.34
2022-11-01T09:26:29.587Z,99624.47
2022-11-01T09:29:00.088Z,99627.16
2022-11-01T09:31:30.034Z,99624.56
2022-11-01T09:34:00.347Z,99637.44
2022-11-01T09:36:30.159Z,99631.50
2022-11-01T09:38:59.537Z,99649.53
2022-11-01T09:41:34.838Z,99649.53
2022-11-01T09:44:06.513Z,99641.00
2022-11-01T09:46:45.197Z,99637.44
2022-11-01T09:49:23.201Z,99641.00
2022-11-01T09:51:52.289Z,99653.88
2022-11-01T09:54:24.502Z,99686.38
2022-11-01T09:57:05.148Z,99699.28
2022-11-01T09:59:38.697Z,99693.44
2022-11-01T10:02:58.460Z,99704.81
2022-11-01T10:05:48.880Z,99707.50
2022-11-01T10:08:36.289Z,99709.38
2022-11-01T10:11:39.452Z,99711.28
2022-11-01T10:14:23.161Z,99718.28
2022-11-01T10:17:07.403Z,99723.69
2022-11-01T10:19:38.389Z,99717.72
2022-11-01T10:22:15.313Z,99723.00
2022-11-01T10:24:51.105Z,99725.59
2022-11-01T10:27:26.571Z,99732.59
2022-11-01T10:30:01.372Z,99731.78
2022-11-01T10:32:36.467Z,99728.47
2022-11-01T10:35:15.981Z,99740.56
2022-11-01T10:38:04.050Z,99735.53
2022-11-01T10:40:43.290Z,99745.00
2022-11-01T10:43:17.270Z,99748.50
2022-11-01T10:45:50.006Z,99752.03
2022-11-01T10:48:30.714Z,99746.03
2022-11-01T10:51:03.765Z,99750.38
2022-11-01T10:53:38.924Z,99746.88
2022-11-01T10:56:12.422Z,99755.53
2022-11-01T10:58:47.940Z,99752.97
2022-11-01T11:01:22.068Z,99744.31
2022-11-01T11:03:52.294Z,99739.97
2022-11-01T11:06:22.506Z,99739.03
2022-11-01T11:08:52.994Z,99737.13
2022-11-01T11:11:35.447Z,99738.78
2022-11-01T11:14:07.287Z,99731.78
2022-11-01T11:16:41.523Z,99724.88
2022-11-01T11:19:21.205Z,99724.75
2022-11-01T11:21:54.251Z,99714.31
2022-11-01T11:24:25.765Z,99723.69
2022-11-01T11:26:56.645Z,99715.84
2022-11-01T11:29:38.689Z,99726.84
2022-11-01T11:32:15.944Z,99730.25
2022-11-01T11:34:44.758Z,99726.72
2022-11-01T11:37:23.116Z,99722.25
2022-11-01T11:40:15.173Z,99719.69
2022-11-01T11:42:44.413Z,99723.09
2022-11-01T11:45:24.824Z,99724.69
2022-11-01T11:47:53.598Z,99716.03
2022-11-01T11:50:37.895Z,99718.50
2022-11-01T11:53:20.233Z,99718.50
2022-11-01T11:55:54.566Z,99721.06
2022-11-01T11:58:30.076Z,99721.78
2022-11-01T12:01:05.754Z,99720.84
2022-11-01T12:03:51.290Z,99726.81
2022-11-01T12:06:22.833Z,99719.88
2022-11-01T12:08:54.953Z,99712.06
2022-11-01T12:11:24.602Z,99721.41
2022-11-01T12:14:03.652Z,99732.53
2022-11-01T12:16:40.835Z,99729.00
2022-11-01T12:19:25.932Z,99722.09
2022-11-01T12:21:55.888Z,99728.06
2022-11-01T12:24:29.006Z,99728.06
2022-11-01T12:27:03.763Z,99729.69
2022-11-01T12:29:38.800Z,99723.63
2022-11-01T12:32:14.503Z,99711.66
2022-11-01T12:34:45.942Z,99719.41
2022-11-01T12:37:20.617Z,99716.69
2022-11-01T12:39:57.183Z,99717.63
2022-11-01T12:42:30.915Z,99714.13
2022-11-01T12:45:07.693Z,99709.78
2022-11-01T12:47:43.430Z,99704.63
2022-11-01T12:50:21.101Z,99704.63
2022-11-01T12:52:54.307Z,99705.47
2022-11-01T12:55:32.830Z,99688.34
2022-11-01T12:58:03.461Z,99695.16
2022-11-01T13:01:03.700Z,99695.97
2022-11-01T13:03:46.777Z,99699.47
2022-11-01T13:06:34.459Z,99692.56
2022-11-01T13:09:12.944Z,99697.72
2022-11-01T13:11:52.281Z,99695.97
2022-11-01T13:14:39.279Z,99700.31
2022-11-01T13:17:17.281Z,99693.38
2022-11-01T13:19:53.989Z,99701.81
2022-11-01T13:22:33.884Z,99690.81
2022-11-01T13:25:07.842Z,99689.88
2022-11-01T13:27:43.469Z,99689.75
2022-11-01T13:30:15.684Z,99695.72
2022-11-01T13:32:50.894Z,99689.75
2022-11-01T13:35:49.378Z,99686.50
2022-11-01T13:38:29.930Z,99697.59
2022-11-01T13:41:09.743Z,99693.38
2022-11-01T13:43:43.482Z,99700.19
2022-11-01T13:46:57.113Z,99706.25
2022-11-01T13:50:10.642Z,99709.91
2022-11-01T13:52:46.915Z,99703.81
2022-11-01T13:55:24.230Z,99705.59
2022-11-01T13:57:53.501Z,99708.97
2022-11-01T14:00:43.133Z,99711.41
2022-11-01T14:03:27.890Z,99709.78
2022-11-01T14:06:37.226Z,99707.31
2022-11-01T14:09:30.754Z,99704.75
2022-11-01T14:12:13.204Z,99709.09
2022-11-01T14:14:52.160Z,99706.53
2022-11-01T14:18:11.183Z,99709.22
2022-11-01T14:20:52.592Z,99718.69
2022-11-01T14:24:01.857Z,99713.53
2022-11-01T14:27:07.978Z,99710.28
2022-11-01T14:29:37.242Z,99707.59
2022-11-01T14:32:07.028Z,99707.59
2022-11-01T14:34:39.461Z,99710.97
2022-11-01T14:37:25.859Z,99714.38
2022-11-01T14:40:21.818Z,99712.59
2022-11-01T14:42:52.691Z,99711.94
2022-11-01T14:45:32.212Z,99723.84
2022-11-01T14:48:08.092Z,99715.31
2022-11-01T14:50:48.015Z,99727.38
2022-11-01T14:53:24.831Z,99711.94
2022-11-01T14:56:08.121Z,99711.09
2022-11-01T14:58:37.280Z,99716.25
2022-11-01T15:01:11.873Z,99708.50
2022-11-01T15:03:40.628Z,99716.25
2022-11-01T15:06:24.492Z,99727.38
2022-11-01T15:08:53.799Z,99729.97
2022-11-01T15:11:22.505Z,99724.09
2022-11-01T15:13:53.340Z,99733.47
2022-11-01T15:16:26.347Z,99729.25
2022-11-01T15:19:00.664Z,99727.59
2022-11-01T15:21:31.752Z,99734.41
2022-11-01T15:24:03.023Z,99737.91
2022-11-01T15:26:34.550Z,99743.91
2022-11-01T15:29:05.970Z,99737.09
2022-11-01T15:31:36.255Z,99741.44
2022-11-01T15:34:19.793Z,99744.97
2022-11-01T15:36:49.815Z,99744.97
2022-11-01T15:39:21.658Z,99738.16
2022-11-01T15:41:52.201Z,99750.25
2022-11-01T15:44:23.321Z,99740.06
2022-11-01T15:46:55.077Z,99739.22
2022-11-01T15:49:29.423Z,99745.44
2022-11-01T15:52:03.077Z,99748.97
2022-11-01T15:54:41.059Z,99745.69
2022-11-01T15:57:19.495Z,99744.03
2022-11-01T15:59:56.633Z,99745.09
2022-11-01T16:02:31.290Z,99752.03
2022-11-01T16:05:01.403Z,99741.84
2022-11-01T16:07:33.375Z,99748.78
2022-11-01T16:10:05.614Z,99755.66
2022-11-01T16:12:38.623Z,99752.41
2022-11-01T16:15:19.292Z,99756.69
2022-11-01T16:17:48.643Z,99756.94
2022-11-01T16:20:37.263Z,99756.22
2022-11-01T16:23:08.718Z,99760.69
2022-11-01T16:25:39.387Z,99774.50
2022-11-01T16:28:29.658Z,99768.53
2022-11-01T16:30:58.909Z,99780.69
2022-11-01T16:33:31.934Z,99784.25
2022-11-01T16:36:03.228Z,99786.91
2022-11-01T16:38:44.496Z,99792.31
2022-11-01T16:41:20.413Z,99799.34
2022-11-01T16:43:50.556Z,99806.34
2022-11-01T16:46:20.471Z,99803.09
2022-11-01T16:48:58.469Z,99806.72
2022-11-01T16:51:28.788Z,99808.44
2022-11-01T16:54:01.342Z,99812.06
2022-11-01T16:56:37.684Z,99819.91
2022-11-01T16:59:26.691Z,99821.69
2022-11-01T17:01:58.402Z,99833.75
2022-11-01T17:04:28.351Z,99823.53
2022-11-01T17:06:59.102Z,99827.88
2022-11-01T17:09:33.818Z,99831.50
2022-11-01T17:12:02.436Z,99833.28
2022-11-01T17:14:32.079Z,99836.78
2022-11-01T17:17:07.143Z,99841.94
2022-11-01T17:19:39.057Z,99832.69
2022-11-01T17:22:13.236Z,99848.13
2022-11-01T17:24:43.222Z,99837.94
2022-11-01T17:27:11.833Z,99839.72
2022-11-01T17:29:40.395Z,99838.88
2022-11-01T17:32:11.070Z,99838.88
2022-11-01T17:34:40.267Z,99839.00
2022-11-01T17:37:08.998Z,99842.38
2022-11-01T17:39:38.175Z,99846.72
2022-11-01T17:42:09.602Z,99841.81
2022-11-01T17:44:38.262Z,99856.41
2022-11-01T17:47:06.927Z,99858.31
2022-11-01T17:49:35.513Z,99851.50
2022-11-01T17:52:04.495Z,99852.56
2022-11-01T17:54:33.319Z,99851.88
2022-11-01T17:57:01.941Z,99857.22
2022-11-01T17:59:31.941Z,99866.94
2022-11-01T18:02:00.685Z,99869.03
2022-11-01T18:04:34.053Z,99867.50
2022-11-01T18:07:06.685Z,99861.69
2022-11-01T18:09:37.400Z,99861.75
2022-11-01T18:12:11.882Z,99862.72
2022-11-01T18:14:55.424Z,99858.50
2022-11-01T18:17:39.350Z,99859.53
2022-11-01T18:20:22.107Z,99857.09
2022-11-01T18:22:55.842Z,99867.38
2022-11-01T18:25:31.086Z,99858.84
2022-11-01T18:28:02.529Z,99865.72
2022-11-01T18:30:32.764Z,99871.81
2022-11-01T18:33:06.913Z,99865.97
2022-11-01T18:35:41.278Z,99869.47
2022-11-01T18:38:21.904Z,99862.69
2022-11-01T18:40:59.404Z,99861.06
2022-11-01T18:43:31.296Z,99867.00
2022-11-01T18:46:25.030Z,99861.06
2022-11-01T18:48:59.912Z,99862.09
2022-11-01T18:51:31.299Z,99861.25
2022-11-01T18:54:28.131Z,99872.56
2022-11-01T18:56:58.934Z,99874.44
2022-11-01T18:59:30.787Z,99861.59
2022-11-01T19:02:07.284Z,99872.78
2022-11-01T19:04:37.498Z,99873.72
2022-11-01T19:07:13.588Z,99868.69
2022-11-01T19:09:44.731Z,99873.03
2022-11-01T19:12:17.677Z,99875.72
2022-11-01T19:14:48.708Z,99874.31
2022-11-01T19:17:25.347Z,99879.66
2022-11-01T19:19:55.927Z,99879.06
2022-11-01T19:22:38.255Z,99881.03
2022-11-01T19:25:20.819Z,99877.03
2022-11-01T19:27:50.797Z,99878.19
2022-11-01T19:30:24.826Z,99886.84
2022-11-01T19:32:57.115Z,99879.34
2022-11-01T19:35:25.872Z,99879.56
2022-11-01T19:37:56.361Z,99883.06
2022-11-01T19:40:29.165Z,99879.69
2022-11-01T19:43:01.719Z,99878.84
2022-11-01T19:45:34.742Z,99878.16
2022-11-01T19:48:08.276Z,99880.72
2022-11-01T19:50:42.168Z,99873.03
2022-11-01T19:53:23.225Z,99871.25
2022-11-01T19:55:55.500Z,99871.38
2022-11-01T19:58:37.309Z,99879.19
2022-11-01T20:01:33.539Z,99868.31
2022-11-01T20:04:08.344Z,99873.56
2022-11-01T20:06:42.303Z,99867.72
2022-11-01T20:09:15.178Z,99878.09
2022-11-01T20:11:43.998Z,99878.19
2022-11-01T20:14:13.298Z,99881.59
2022-11-01T20:16:42.231Z,99887.66
2022-11-01T20:19:16.396Z,99885.22
2022-11-01T20:21:46.965Z,99882.03
2022-11-01T20:24:16.559Z,99886.47
2022-11-01T20:26:45.291Z,99890.06
2022-11-01T20:29:15.607Z,99891.81
2022-11-01T20:31:44.642Z,99897.97
2022-11-01T20:34:14.780Z,99897.28
2022-11-01T20:36:46.863Z,99901.69
2022-11-01T20:39:24.183Z,99907.16
2022-11-01T20:41:53.945Z,99902.25
2022-11-01T20:44:23.224Z,99910.88
2022-11-01T20:46:51.932Z,99902.34
2022-11-01T20:49:22.506Z,99913.56
2022-11-01T20:51:51.203Z,99919.59
2022-11-01T20:54:19.930Z,99917.03
2022-11-01T20:56:48.617Z,99915.41
2022-11-01T20:59:20.428Z,99919.00
2022-11-01T21:01:50.513Z,99925.19
2022-11-01T21:04:39.956Z,99921.09
2022-11-01T21:07:31.099Z,99915.22
2022-11-01T21:10:31.249Z,99924.75
2022-11-01T21:13:27.142Z,99925.78
2022-11-01T21:16:24.275Z,99925.06
2022-11-01T21:19:18.881Z,99921.91
2022-11-01T21:22:16.746Z,99926.19
2022-11-01T21:25:04.628Z,99925.38
2022-11-01T21:27:51.760Z,99928.88
2022-11-01T21:30:38.787Z,99936.56
2022-11-01T21:33:36.540Z,99935.84
2022-11-01T21:36:35.438Z,99928.25
2022-11-01T21:39:26.989Z,99926.69
2022-11-01T21:42:32.774Z,99931.03
2022-11-01T21:45:30.952Z,99926.69
2022-11-01T21:48:23.906Z,99931.84
2022-11-01T21:51:11.191Z,99928.34
2022-11-01T21:54:01.630Z,99930.00
2022-11-01T21:56:52.749Z,99929.28
2022-11-01T21:59:40.643Z,99926.81
2022-11-01T22:02:27.623Z,99935.53
2022-11-01T22:05:15.246Z,99935.66
2022-11-01T22:08:02.678Z,99930.53
2022-11-01T22:10:49.697Z,99922.91
2022-11-01T22:13:38.171Z,99929.72
2022-11-01T22:16:25.605Z,99920.34
2022-11-01T22:19:12.846Z,99924.56
2022-11-01T22:22:00.215Z,99924.69
2022-11-01T22:24:47.386Z,99923.94
2022-11-01T22:27:34.780Z,99925.72
2022-11-01T22:30:23.187Z,99921.72
2022-11-01T22:33:11.733Z,99920.88
2022-11-01T22:35:59.203Z,99922.72
2022-11-01T22:38:46.603Z,99924.56
2022-11-01T22:41:35.885Z,99925.63
2022-11-01T22:44:28.416Z,99935.06
2022-11-01T22:47:28.090Z,99925.81
2022-11-01T22:50:25.364Z,99923.25
2022-11-01T22:53:14.723Z,99929.31
2022-11-01T22:56:02.003Z,99931.88
2022-11-01T22:58:49.006Z,99929.31
2022-11-01T23:01:36.449Z,99927.66
2022-11-01T23:04:25.013Z,99924.38
2022-11-01T23:07:32.936Z,99924.47
2022-11-01T23:10:30.133Z,99927.84
2022-11-01T23:13:41.395Z,99927.84
2022-11-01T23:16:32.065Z,99926.25
2022-11-01T23:19:19.586Z,99927.84
2022-11-01T23:22:14.954Z,99921.81
2022-11-01T23:25:02.036Z,99921.69
2022-11-01T23:27:49.415Z,99926.75
2022-11-01T23:30:37.000Z,99930.94
2022-11-01T23:33:36.691Z,99925.81
2022-11-01T23:36:27.995Z,99929.31
2022-11-01T23:39:16.841Z,99925.09
2022-11-01T23:42:04.376Z,99925.81
2022-11-01T23:44:55.039Z,99924.88
2022-11-01T23:47:43.022Z,99924.78
2022-11-01T23:50:33.964Z,99915.34
2022-11-01T23:53:30.644Z,99912.69
2022-11-01T23:56:21.209Z,99910.81
2022-11-01T23:59:08.420Z,99912.56
